sensor_id;sensor_type;location;lat;lon;timestamp;pressure;altitude;pressure_sealevel;temperature;humidity
60307;BME280;46155;52.364;6.580;2023-08-06T03:02:19;100171.69;;;13.72;100.00
60307;BME280;46155;52.364;6.580;2023-08-06T03:04:44;100163.53;;;13.66;100.00
60307;BME280;46155;52.364;6.580;2023-08-06T03:07:10;100165.22;;;13.64;100.00
60307;BME280;46155;52.364;6.580;2023-08-06T03:09:35;100168.81;;;13.66;100.00
60307;BME280;46155;52.364;6.580;2023-08-06T03:12:00;100167.16;;;13.68;100.00
60307;BME280;46155;52.364;6.580;2023-08-06T03:14:25;100165.41;;;13.69;100.00
60307;BME280;46155;52.364;6.580;2023-08-06T03:16:51;100165.44;;;13.70;100.00
60307;BME280;46155;52.364;6.580;2023-08-06T03:19:16;100167.41;;;13.76;100.00
60307;BME280;46155;52.364;6.580;2023-08-06T03:21:41;100162.09;;;13.74;100.00
60307;BME280;46155;52.364;6.580;2023-08-06T03:24:07;100171.09;;;13.80;100.00
60307;BME280;46155;52.364;6.580;2023-08-06T03:26:32;100167.47;;;13.77;100.00
60307;BME280;46155;52.364;6.580;2023-08-06T03:28:57;100166.53;;;13.75;100.00
60307;BME280;46155;52.364;6.580;2023-08-06T03:31:22;100160.06;;;13.67;100.00
60307;BME280;46155;52.364;6.580;2023-08-06T03:33:48;100166.38;;;13.71;100.00
60307;BME280;46155;52.364;6.580;2023-08-06T03:36:13;100163.91;;;13.75;100.00
60307;BME280;46155;52.364;6.580;2023-08-06T03:38:39;100168.34;;;13.76;100.00
60307;BME280;46155;52.364;6.580;2023-08-06T03:41:04;100164.72;;;13.74;100.00
60307;BME280;46155;52.364;6.580;2023-08-06T03:43:30;100162.16;;;13.76;100.00
60307;BME280;46155;52.364;6.580;2023-08-06T03:45:55;100163.06;;;13.76;100.00
60307;BME280;46155;52.364;6.580;2023-08-06T03:48:20;100173.78;;;13.81;100.00
60307;BME280;46155;52.364;6.580;2023-08-06T03:50:46;100171.19;;;13.83;100.00
60307;BME280;46155;52.364;6.580;2023-08-06T03:53:11;100171.41;;;13.89;100.00
60307;BME280;46155;52.364;6.580;2023-08-06T03:55:36;100176.59;;;13.86;100.00
60307;BME280;46155;52.364;6.580;2023-08-06T03:58:02;100173.94;;;13.86;100.00
60307;BME280;46155;52.364;6.580;2023-08-06T04:00:27;100174.09;;;13.90;100.00
60307;BME280;46155;52.364;6.580;2023-08-06T04:02:53;100175.81;;;13.88;100.00
60307;BME280;46155;52.364;6.580;2023-08-06T04:05:18;100171.47;;;13.90;100.00
60307;BME280;46155;52.364;6.580;2023-08-06T04:07:44;100171.66;;;13.95;100.00
60307;BME280;46155;52.364;6.580;2023-08-06T04:10:09;100173.22;;;13.90;100.00
60307;BME280;46155;52.364;6.580;2023-08-06T04:12:34;100166.81;;;13.83;100.00
60307;BME280;46155;52.364;6.580;2023-08-06T04:15:03;100163.44;;;13.87;100.00
60307;BME280;46155;52.364;6.580;2023-08-06T04:17:29;100161.84;;;13.91;100.00
60307;BME280;46155;52.364;6.580;2023-08-06T04:19:54;100167.16;;;13.92;100.00
60307;BME280;46155;52.364;6.580;2023-08-06T04:22:23;100170.03;;;13.99;100.00
60307;BME280;46155;52.364;6.580;2023-08-06T04:24:49;100168.16;;;13.96;100.00
60307;BME280;46155;52.364;6.580;2023-08-06T04:27:15;100171.34;;;13.87;100.00
60307;BME280;46155;52.364;6.580;2023-08-06T04:29:40;100167.72;;;13.84;100.00
60307;BME280;46155;52.364;6.580;2023-08-06T04:32:07;100164.94;;;13.81;100.00
60307;BME280;46155;52.364;6.580;2023-08-06T04:34:33;100171.09;;;13.80;100.00
60307;BME280;46155;52.364;6.580;2023-08-06T04:36:59;100171.09;;;13.80;100.00
60307;BME280;46155;52.364;6.580;2023-08-06T04:39:25;100169.16;;;13.75;100.00
60307;BME280;46155;52.364;6.580;2023-08-06T04:41:50;100167.38;;;13.74;100.00
60307;BME280;46155;52.364;6.580;2023-08-06T04:44:15;100170.88;;;13.75;100.00
60307;BME280;46155;52.364;6.580;2023-08-06T04:46:41;100170.13;;;13.77;100.00
60307;BME280;46155;52.364;6.580;2023-08-06T04:49:06;100169.28;;;13.78;100.00
60307;BME280;46155;52.364;6.580;2023-08-06T04:51:31;100165.81;;;13.80;100.00
60307;BME280;46155;52.364;6.580;2023-08-06T04:53:57;100161.53;;;13.83;100.00
60307;BME280;46155;52.364;6.580;2023-08-06T04:56:23;100171.41;;;13.89;100.00
60307;BME280;46155;52.364;6.580;2023-08-06T04:58:48;100169.63;;;13.88;100.00
60307;BME280;46155;52.364;6.580;2023-08-06T05:01:14;100169.63;;;13.88;100.00
60307;BME280;46155;52.364;6.580;2023-08-06T05:03:39;100176.47;;;13.83;100.00
60307;BME280;46155;52.364;6.580;2023-08-06T05:06:04;100176.59;;;13.86;100.00
60307;BME280;46155;52.364;6.580;2023-08-06T05:08:30;100178.13;;;13.81;100.00
60307;BME280;46155;52.364;6.580;2023-08-06T05:10:55;100174.56;;;13.78;100.00
60307;BME280;46155;52.364;6.580;2023-08-06T05:13:20;100172.63;;;13.74;100.00
60307;BME280;46155;52.364;6.580;2023-08-06T05:15:46;100173.00;;;13.84;100.00
60307;BME280;46155;52.364;6.580;2023-08-06T05:18:12;100185.47;;;13.88;100.00
60307;BME280;46155;52.364;6.580;2023-08-06T05:20:38;100190.06;;;13.93;100.00
60307;BME280;46155;52.364;6.580;2023-08-06T05:23:03;100190.97;;;13.94;100.00
60307;BME280;46155;52.364;6.580;2023-08-06T05:25:34;100192.56;;;13.90;100.00
60307;BME280;46155;52.364;6.580;2023-08-06T05:27:59;100195.09;;;13.87;100.00
60307;BME280;46155;52.364;6.580;2023-08-06T05:30:26;100192.53;;;13.89;100.00
60307;BME280;46155;52.364;6.580;2023-08-06T05:32:52;100192.63;;;13.92;100.00
60307;BME280;46155;52.364;6.580;2023-08-06T05:35:17;100188.38;;;13.95;100.00
60307;BME280;46155;52.364;6.580;2023-08-06T05:37:42;100187.59;;;13.98;100.00
60307;BME280;46155;52.364;6.580;2023-08-06T05:40:08;100191.06;;;13.97;100.00
60307;BME280;46155;52.364;6.580;2023-08-06T05:42:33;100193.09;;;14.04;100.00
60307;BME280;46155;52.364;6.580;2023-08-06T05:44:58;100192.38;;;14.08;100.00
60307;BME280;46155;52.364;6.580;2023-08-06T05:47:24;100203.09;;;14.13;100.00
60307;BME280;46155;52.364;6.580;2023-08-06T05:49:49;100198.72;;;14.14;100.00
60307;BME280;46155;52.364;6.580;2023-08-06T05:52:14;100197.09;;;14.17;100.00
60307;BME280;46155;52.364;6.580;2023-08-06T05:54:40;100191.19;;;14.24;100.00
60307;BME280;46155;52.364;6.580;2023-08-06T05:57:06;100194.09;;;14.32;100.00
60307;BME280;46155;52.364;6.580;2023-08-06T05:59:31;100192.28;;;14.55;100.00
60307;BME280;46155;52.364;6.580;2023-08-06T06:01:56;100196.56;;;14.52;100.00
60307;BME280;46155;52.364;6.580;2023-08-06T06:04:22;100209.78;;;14.52;100.00
60307;BME280;46155;52.364;6.580;2023-08-06T06:06:47;100205.03;;;14.43;100.00
60307;BME280;46155;52.364;6.580;2023-08-06T06:09:12;100206.06;;;14.46;100.00
60307;BME280;46155;52.364;6.580;2023-08-06T06:11:38;100208.81;;;14.50;100.00
60307;BME280;46155;52.364;6.580;2023-08-06T06:14:03;100204.44;;;14.50;100.00
60307;BME280;46155;52.364;6.580;2023-08-06T06:16:28;100211.66;;;14.56;100.00
60307;BME280;46155;52.364;6.580;2023-08-06T06:18:54;100219.56;;;14.56;100.00
60307;BME280;46155;52.364;6.580;2023-08-06T06:21:20;100209.09;;;14.57;100.00
60307;BME280;46155;52.364;6.580;2023-08-06T06:23:45;100222.41;;;14.60;100.00
60307;BME280;46155;52.364;6.580;2023-08-06T06:26:10;100212.84;;;14.64;100.00
60307;BME280;46155;52.364;6.580;2023-08-06T06:28:36;100218.47;;;14.73;100.00
60307;BME280;46155;52.364;6.580;2023-08-06T06:31:01;100222.06;;;14.75;100.00
60307;BME280;46155;52.364;6.580;2023-08-06T06:33:27;100221.06;;;14.72;100.00
60307;BME280;46155;52.364;6.580;2023-08-06T06:35:52;100230.22;;;14.82;100.00
60307;BME280;46155;52.364;6.580;2023-08-06T06:38:18;100219.75;;;14.85;100.00
60307;BME280;46155;52.364;6.580;2023-08-06T06:40:43;100227.81;;;14.89;100.00
60307;BME280;46155;52.364;6.580;2023-08-06T06:43:08;100225.38;;;14.95;100.00
60307;BME280;46155;52.364;6.580;2023-08-06T06:45:33;100227.31;;;15.01;100.00
60307;BME280;46155;52.364;6.580;2023-08-06T06:47:59;100232.56;;;15.00;100.00
60307;BME280;46155;52.364;6.580;2023-08-06T06:50:24;100233.56;;;15.03;100.00
60307;BME280;46155;52.364;6.580;2023-08-06T06:52:51;100223.75;;;14.99;100.00
60307;BME280;46155;52.364;6.580;2023-08-06T06:55:16;100230.78;;;14.98;100.00
60307;BME280;46155;52.364;6.580;2023-08-06T06:57:41;100238.75;;;15.00;100.00
60307;BME280;46155;52.364;6.580;2023-08-06T07:00:07;100229.75;;;14.95;100.00
60307;BME280;46155;52.364;6.580;2023-08-06T07:02:32;100233.16;;;14.91;100.00
60307;BME280;46155;52.364;6.580;2023-08-06T07:04:58;100234.31;;;14.99;100.00
60307;BME280;46155;52.364;6.580;2023-08-06T07:07:23;100227.50;;;15.06;100.00
60307;BME280;46155;52.364;6.580;2023-08-06T07:09:48;100232.09;;;15.11;100.00
60307;BME280;46155;52.364;6.580;2023-08-06T07:12:14;100233.06;;;15.15;100.00
60307;BME280;46155;52.364;6.580;2023-08-06T07:14:39;100229.50;;;15.13;100.00
60307;BME280;46155;52.364;6.580;2023-08-06T07:17:05;100239.09;;;15.11;100.00
60307;BME280;46155;52.364;6.580;2023-08-06T07:19:30;100234.00;;;15.15;100.00
60307;BME280;46155;52.364;6.580;2023-08-06T07:21:55;100238.59;;;15.21;100.00
60307;BME280;46155;52.364;6.580;2023-08-06T07:24:21;100239.69;;;15.29;100.00
60307;BME280;46155;52.364;6.580;2023-08-06T07:26:46;100241.66;;;15.35;100.00
60307;BME280;46155;52.364;6.580;2023-08-06T07:29:12;100240.16;;;15.43;100.00
60307;BME280;46155;52.364;6.580;2023-08-06T07:31:37;100249.00;;;15.44;100.00
60307;BME280;46155;52.364;6.580;2023-08-06T07:34:03;100244.19;;;15.32;100.00
60307;BME280;46155;52.364;6.580;2023-08-06T07:36:28;100252.13;;;15.32;100.00
60307;BME280;46155;52.364;6.580;2023-08-06T07:38:53;100246.09;;;15.36;100.00
60307;BME280;46155;52.364;6.580;2023-08-06T07:41:24;100254.34;;;15.45;100.00
60307;BME280;46155;52.364;6.580;2023-08-06T07:43:50;100249.16;;;15.48;100.00
60307;BME280;46155;52.364;6.580;2023-08-06T07:46:15;100252.69;;;15.49;100.00
60307;BME280;46155;52.364;6.580;2023-08-06T07:48:41;100256.34;;;15.53;100.00
60307;BME280;46155;52.364;6.580;2023-08-06T07:51:06;100258.06;;;15.52;100.00
60307;BME280;46155;52.364;6.580;2023-08-06T07:53:31;100251.97;;;15.55;100.00
60307;BME280;46155;52.364;6.580;2023-08-06T07:55:57;100257.44;;;15.59;100.00
60307;BME280;46155;52.364;6.580;2023-08-06T07:58:24;100250.47;;;15.63;100.00
60307;BME280;46155;52.364;6.580;2023-08-06T08:00:49;100251.56;;;15.70;100.00
60307;BME280;46155;52.364;6.580;2023-08-06T08:03:15;100251.53;;;15.68;100.00
60307;BME280;46155;52.364;6.580;2023-08-06T08:05:42;100253.31;;;15.69;100.00
60307;BME280;46155;52.364;6.580;2023-08-06T08:08:08;100248.72;;;15.63;100.00
60307;BME280;46155;52.364;6.580;2023-08-06T08:10:34;100255.19;;;15.73;100.00
60307;BME280;46155;52.364;6.580;2023-08-06T08:13:03;100254.31;;;15.73;100.00
60307;BME280;46155;52.364;6.580;2023-08-06T08:15:30;100253.50;;;15.75;100.00
60307;BME280;46155;52.364;6.580;2023-08-06T08:17:55;100254.53;;;15.79;100.00
60307;BME280;46155;52.364;6.580;2023-08-06T08:20:21;100249.91;;;15.73;100.00
60307;BME280;46155;52.364;6.580;2023-08-06T08:22:46;100254.44;;;15.77;100.00
60307;BME280;46155;52.364;6.580;2023-08-06T08:25:11;100254.69;;;15.83;100.00
60307;BME280;46155;52.364;6.580;2023-08-06T08:27:37;100267.06;;;15.84;100.00
60307;BME280;46155;52.364;6.580;2023-08-06T08:30:02;100270.63;;;15.85;100.00
60307;BME280;46155;52.364;6.580;2023-08-06T08:32:28;100257.22;;;15.80;100.00
60307;BME280;46155;52.364;6.580;2023-08-06T08:34:53;100260.63;;;15.76;100.00
60307;BME280;46155;52.364;6.580;2023-08-06T08:37:18;100263.25;;;15.76;100.00
60307;BME280;46155;52.364;6.580;2023-08-06T08:39:44;100264.81;;;15.70;100.00
60307;BME280;46155;52.364;6.580;2023-08-06T08:42:10;100260.19;;;15.62;100.00
60307;BME280;46155;52.364;6.580;2023-08-06T08:44:35;100263.78;;;15.66;100.00
60307;BME280;46155;52.364;6.580;2023-08-06T08:47:05;100259.59;;;15.73;100.00
60307;BME280;46155;52.364;6.580;2023-08-06T08:49:31;100254.28;;;15.71;100.00
60307;BME280;46155;52.364;6.580;2023-08-06T08:51:58;100256.06;;;15.72;100.00
60307;BME280;46155;52.364;6.580;2023-08-06T08:54:25;100264.19;;;15.78;100.00
60307;BME280;46155;52.364;6.580;2023-08-06T08:56:51;100257.34;;;15.83;100.00
60307;BME280;46155;52.364;6.580;2023-08-06T08:59:16;100255.91;;;15.95;100.00
60307;BME280;46155;52.364;6.580;2023-08-06T09:01:42;100266.94;;;16.10;100.00
60307;BME280;46155;52.364;6.580;2023-08-06T09:04:10;100264.53;;;16.18;100.00
60307;BME280;46155;52.364;6.580;2023-08-06T09:06:37;100266.63;;;16.30;100.00
60307;BME280;46155;52.364;6.580;2023-08-06T09:09:08;100265.94;;;16.37;100.00
60307;BME280;46155;52.364;6.580;2023-08-06T09:11:37;100263.78;;;16.54;100.00
60307;BME280;46155;52.364;6.580;2023-08-06T09:14:09;100269.72;;;16.45;100.00
60307;BME280;46155;52.364;6.580;2023-08-06T09:16:35;100262.72;;;16.47;100.00
60307;BME280;46155;52.364;6.580;2023-08-06T09:19:11;100263.88;;;16.57;100.00
60307;BME280;46155;52.364;6.580;2023-08-06T09:21:46;100271.09;;;16.63;100.00
60307;BME280;46155;52.364;6.580;2023-08-06T09:24:14;100265.28;;;16.76;100.00
60307;BME280;46155;52.364;6.580;2023-08-06T09:26:43;100267.47;;;16.91;100.00
60307;BME280;46155;52.364;6.580;2023-08-06T09:29:09;100275.63;;;16.99;100.00
60307;BME280;46155;52.364;6.580;2023-08-06T09:34:11;100274.53;;;17.26;100.00
60307;BME280;46155;52.364;6.580;2023-08-06T09:36:55;100278.50;;;17.43;100.00
60307;BME280;46155;52.364;6.580;2023-08-06T09:39:27;100283.09;;;17.50;100.00
60307;BME280;46155;52.364;6.580;2023-08-06T09:42:00;100284.91;;;17.51;100.00
60307;BME280;46155;52.364;6.580;2023-08-06T09:44:27;100290.44;;;17.61;100.00
60307;BME280;46155;52.364;6.580;2023-08-06T09:47:02;100293.94;;;17.60;100.00
60307;BME280;46155;52.364;6.580;2023-08-06T09:49:39;100290.50;;;17.64;100.00
60307;BME280;46155;52.364;6.580;2023-08-06T09:52:10;100291.28;;;17.60;100.00
60307;BME280;46155;52.364;6.580;2023-08-06T09:54:37;100297.53;;;17.62;100.00
60307;BME280;46155;52.364;6.580;2023-08-06T09:57:03;100293.78;;;17.53;100.00
60307;BME280;46155;52.364;6.580;2023-08-06T09:59:29;100294.91;;;17.63;100.00
60307;BME280;46155;52.364;6.580;2023-08-06T10:01:56;100295.25;;;17.79;100.00
60307;BME280;46155;52.364;6.580;2023-08-06T10:04:22;100300.38;;;18.06;100.00
60307;BME280;46155;52.364;6.580;2023-08-06T10:06:48;100302.28;;;18.13;100.00
60307;BME280;46155;52.364;6.580;2023-08-06T10:09:14;100302.34;;;18.16;100.00
60307;BME280;46155;52.364;6.580;2023-08-06T10:11:39;100298.50;;;18.02;100.00
60307;BME280;46155;52.364;6.580;2023-08-06T10:14:42;100297.41;;;17.94;100.00
60307;BME280;46155;52.364;6.580;2023-08-06T10:17:09;100298.56;;;18.05;100.00
60307;BME280;46155;52.364;6.580;2023-08-06T10:19:35;100294.75;;;17.94;100.00
60307;BME280;46155;52.364;6.580;2023-08-06T10:22:14;100296.69;;;18.01;100.00
60307;BME280;46155;52.364;6.580;2023-08-06T10:27:20;100297.53;;;17.98;100.00
60307;BME280;46155;52.364;6.580;2023-08-06T10:29:46;100294.91;;;18.00;100.00
60307;BME280;46155;52.364;6.580;2023-08-06T10:32:11;100294.75;;;17.94;100.00
60307;BME280;46155;52.364;6.580;2023-08-06T10:34:56;100285.84;;;17.92;100.00
60307;BME280;46155;52.364;6.580;2023-08-06T10:37:22;100295.59;;;17.91;100.00
60307;BME280;46155;52.364;6.580;2023-08-06T10:39:50;100293.63;;;17.84;100.00
60307;BME280;46155;52.364;6.580;2023-08-06T10:42:22;100294.47;;;17.83;100.00
60307;BME280;46155;52.364;6.580;2023-08-06T10:45:14;100285.25;;;17.67;100.00
60307;BME280;46155;52.364;6.580;2023-08-06T10:47:40;100283.47;;;17.66;100.00
60307;BME280;46155;52.364;6.580;2023-08-06T10:50:07;100289.56;;;17.62;100.00
60307;BME280;46155;52.364;6.580;2023-08-06T10:52:34;100284.16;;;17.57;100.00
60307;BME280;46155;52.364;6.580;2023-08-06T10:54:59;100281.59;;;17.62;100.00
60307;BME280;46155;52.364;6.580;2023-08-06T10:57:25;100288.84;;;17.69;100.00
60307;BME280;46155;52.364;6.580;2023-08-06T10:59:50;100290.69;;;17.71;100.00
60307;BME280;46155;52.364;6.580;2023-08-06T11:02:16;100289.06;;;17.78;100.00
60307;BME280;46155;52.364;6.580;2023-08-06T11:04:41;100287.94;;;17.68;100.00
60307;BME280;46155;52.364;6.580;2023-08-06T11:07:07;100293.16;;;17.64;100.00
60307;BME280;46155;52.364;6.580;2023-08-06T11:09:32;100289.69;;;17.66;100.00
60307;BME280;46155;52.364;6.580;2023-08-06T11:11:58;100283.41;;;17.63;100.00
60307;BME280;46155;52.364;6.580;2023-08-06T11:14:26;100287.13;;;17.71;100.00
60307;BME280;46155;52.364;6.580;2023-08-06T11:16:51;100280.25;;;17.79;100.00
60307;BME280;46155;52.364;6.580;2023-08-06T11:19:17;100283.88;;;17.84;100.00
60307;BME280;46155;52.364;6.580;2023-08-06T11:21:43;100281.44;;;17.91;100.00
60307;BME280;46155;52.364;6.580;2023-08-06T11:24:12;100282.47;;;17.99;100.00
60307;BME280;46155;52.364;6.580;2023-08-06T11:26:37;100278.06;;;17.99;100.00
60307;BME280;46155;52.364;6.580;2023-08-06T11:29:03;100280.03;;;18.08;100.00
60307;BME280;46155;52.364;6.580;2023-08-06T11:31:29;100282.84;;;18.16;100.00
60307;BME280;46155;52.364;6.580;2023-08-06T11:33:54;100281.25;;;18.24;100.00
60307;BME280;46155;52.364;6.580;2023-08-06T11:36:33;100292.94;;;18.32;100.00
60307;BME280;46155;52.364;6.580;2023-08-06T11:39:02;100290.31;;;18.34;100.00
60307;BME280;46155;52.364;6.580;2023-08-06T11:41:31;100285.06;;;18.37;100.00
60307;BME280;46155;52.364;6.580;2023-08-06T11:43:56;100284.16;;;18.36;100.00
60307;BME280;46155;52.364;6.580;2023-08-06T11:46:21;100284.25;;;18.41;100.00
60307;BME280;46155;52.364;6.580;2023-08-06T11:48:58;100286.28;;;18.53;100.00
60307;BME280;46155;52.364;6.580;2023-08-06T11:51:26;100284.50;;;18.53;100.00
60307;BME280;46155;52.364;6.580;2023-08-06T11:54:01;100283.81;;;18.64;100.00
60307;BME280;46155;52.364;6.580;2023-08-06T11:56:27;100289.13;;;18.64;100.00
60307;BME280;46155;52.364;6.580;2023-08-06T11:58:54;100278.56;;;18.67;100.00
60307;BME280;46155;52.364;6.580;2023-08-06T12:01:20;100278.50;;;18.64;100.00
60307;BME280;46155;52.364;6.580;2023-08-06T12:03:45;100282.94;;;18.63;100.00
60307;BME280;46155;52.364;6.580;2023-08-06T12:06:11;100279.34;;;18.61;100.00
60307;BME280;46155;52.364;6.580;2023-08-06T12:08:36;100278.44;;;18.61;100.00
60307;BME280;46155;52.364;6.580;2023-08-06T12:11:03;100278.25;;;18.51;100.00
60307;BME280;46155;52.364;6.580;2023-08-06T12:13:28;100285.44;;;18.57;100.00
60307;BME280;46155;52.364;6.580;2023-08-06T12:15:54;100289.28;;;18.70;100.00
60307;BME280;46155;52.364;6.580;2023-08-06T12:18:22;100282.28;;;18.76;100.00
60307;BME280;46155;52.364;6.580;2023-08-06T12:20:47;100288.25;;;18.63;100.00
60307;BME280;46155;52.364;6.580;2023-08-06T12:23:13;100289.28;;;18.70;100.00
60307;BME280;46155;52.364;6.580;2023-08-06T12:25:41;100285.69;;;18.68;100.00
60307;BME280;46155;52.364;6.580;2023-08-06T12:28:06;100282.28;;;18.75;100.00
60307;BME280;46155;52.364;6.580;2023-08-06T12:30:32;100285.75;;;18.72;100.00
60307;BME280;46155;52.364;6.580;2023-08-06T12:32:58;100292.09;;;18.79;100.00
60307;BME280;46155;52.364;6.580;2023-08-06T12:35:23;100278.72;;;18.74;100.00
60307;BME280;46155;52.364;6.580;2023-08-06T12:37:50;100276.91;;;18.72;100.00
60307;BME280;46155;52.364;6.580;2023-08-06T12:40:19;100275.28;;;18.80;100.00
60307;BME280;46155;52.364;6.580;2023-08-06T12:42:44;100281.78;;;18.95;100.00
60307;BME280;46155;52.364;6.580;2023-08-06T12:45:10;100280.13;;;19.01;100.00
60307;BME280;46155;52.364;6.580;2023-08-06T12:47:35;100283.78;;;19.08;100.00
60307;BME280;46155;52.364;6.580;2023-08-06T12:50:00;100279.50;;;19.16;100.00
60307;BME280;46155;52.364;6.580;2023-08-06T12:52:26;100281.06;;;19.05;100.00
60307;BME280;46155;52.364;6.580;2023-08-06T12:54:51;100283.66;;;19.00;100.00
60307;BME280;46155;52.364;6.580;2023-08-06T12:57:16;100282.91;;;19.09;100.00
60307;BME280;46155;52.364;6.580;2023-08-06T12:59:42;100279.63;;;19.22;100.00
60307;BME280;46155;52.364;6.580;2023-08-06T13:02:07;100279.75;;;19.32;100.00
60307;BME280;46155;52.364;6.580;2023-08-06T13:04:33;100279.00;;;19.39;100.00
60307;BME280;46155;52.364;6.580;2023-08-06T13:06:59;100284.53;;;19.53;100.00
60307;BME280;46155;52.364;6.580;2023-08-06T13:09:24;100285.56;;;19.61;100.00
60307;BME280;46155;52.364;6.580;2023-08-06T13:11:51;100293.03;;;19.82;96.81
60307;BME280;46155;52.364;6.580;2023-08-06T13:14:17;100294.59;;;19.71;99.42
60307;BME280;46155;52.364;6.580;2023-08-06T13:16:43;100294.63;;;19.74;100.00
60307;BME280;46155;52.364;6.580;2023-08-06T13:19:09;100299.81;;;19.65;99.42
60307;BME280;46155;52.364;6.580;2023-08-06T13:21:35;100293.59;;;19.64;100.00
60307;BME280;46155;52.364;6.580;2023-08-06T13:24:16;100292.81;;;19.71;100.00
60307;BME280;46155;52.364;6.580;2023-08-06T13:26:42;100290.28;;;19.77;100.00
60307;BME280;46155;52.364;6.580;2023-08-06T13:29:07;100300.22;;;19.88;100.00
60307;BME280;46155;52.364;6.580;2023-08-06T13:31:33;100297.59;;;19.92;100.00
60307;BME280;46155;52.364;6.580;2023-08-06T13:33:58;100296.75;;;19.93;100.00
60307;BME280;46155;52.364;6.580;2023-08-06T13:36:27;100298.50;;;19.94;100.00
60307;BME280;46155;52.364;6.580;2023-08-06T13:38:52;100300.50;;;20.08;100.00
60307;BME280;46155;52.364;6.580;2023-08-06T13:41:18;100297.75;;;20.02;99.87
60307;BME280;46155;52.364;6.580;2023-08-06T13:43:44;100300.34;;;19.99;98.32
60307;BME280;46155;52.364;6.580;2023-08-06T13:46:10;100296.72;;;19.90;100.00
60307;BME280;46155;52.364;6.580;2023-08-06T13:48:40;100293.94;;;19.86;100.00
60307;BME280;46155;52.364;6.580;2023-08-06T13:51:05;100298.38;;;19.85;100.00
60307;BME280;46155;52.364;6.580;2023-08-06T13:53:30;100292.84;;;19.73;100.00
60307;BME280;46155;52.364;6.580;2023-08-06T13:55:56;100292.50;;;19.51;99.32
60307;BME280;46155;52.364;6.580;2023-08-06T13:58:22;100299.38;;;19.37;100.00
60307;BME280;46155;52.364;6.580;2023-08-06T14:00:48;100301.28;;;19.44;100.00
60307;BME280;46155;52.364;6.580;2023-08-06T14:03:13;100312.63;;;19.32;100.00
60307;BME280;46155;52.364;6.580;2023-08-06T14:05:38;100329.38;;;19.26;100.00
60307;BME280;46155;52.364;6.580;2023-08-06T14:08:04;100346.13;;;18.78;100.00
60307;BME280;46155;52.364;6.580;2023-08-06T14:10:29;100348.03;;;18.41;100.00
60307;BME280;46155;52.364;6.580;2023-08-06T14:12:54;100355.06;;;17.98;100.00
60307;BME280;46155;52.364;6.580;2023-08-06T14:15:20;100359.59;;;17.67;100.00
60307;BME280;46155;52.364;6.580;2023-08-06T14:17:45;100363.19;;;17.34;100.00
60307;BME280;46155;52.364;6.580;2023-08-06T14:20:10;100370.88;;;16.91;100.00
60307;BME280;46155;52.364;6.580;2023-08-06T14:22:37;100378.94;;;16.35;100.00
60307;BME280;46155;52.364;6.580;2023-08-06T14:25:03;100366.97;;;16.19;100.00
60307;BME280;46155;52.364;6.580;2023-08-06T14:27:28;100367.81;;;16.18;100.00
60307;BME280;46155;52.364;6.580;2023-08-06T14:29:54;100368.44;;;16.09;100.00
60307;BME280;46155;52.364;6.580;2023-08-06T14:32:19;100380.16;;;16.17;100.00
60307;BME280;46155;52.364;6.580;2023-08-06T14:34:44;100391.38;;;16.10;100.00
60307;BME280;46155;52.364;6.580;2023-08-06T14:37:10;100388.88;;;16.13;100.00
60307;BME280;46155;52.364;6.580;2023-08-06T14:39:35;100398.84;;;16.22;100.00
60307;BME280;46155;52.364;6.580;2023-08-06T14:42:01;100400.66;;;16.23;100.00
60307;BME280;46155;52.364;6.580;2023-08-06T14:44:27;100406.66;;;16.17;100.00
60307;BME280;46155;52.364;6.580;2023-08-06T14:46:52;100412.13;;;16.24;100.00
60307;BME280;46155;52.364;6.580;2023-08-06T14:49:18;100416.63;;;16.26;100.00
60307;BME280;46155;52.364;6.580;2023-08-06T14:51:43;100427.97;;;16.22;100.00
60307;BME280;46155;52.364;6.580;2023-08-06T14:54:09;100433.41;;;16.27;100.00
60307;BME280;46155;52.364;6.580;2023-08-06T14:56:34;100437.94;;;16.31;100.00
60307;BME280;46155;52.364;6.580;2023-08-06T14:58:59;100437.03;;;16.29;100.00
60307;BME280;46155;52.364;6.580;2023-08-06T15:01:25;100452.91;;;16.29;100.00
60307;BME280;46155;52.364;6.580;2023-08-06T15:03:50;100454.50;;;16.24;100.00
60307;BME280;46155;52.364;6.580;2023-08-06T15:06:15;100452.78;;;16.26;100.00
60307;BME280;46155;52.364;6.580;2023-08-06T15:08:41;100467.84;;;16.27;100.00
60307;BME280;46155;52.364;6.580;2023-08-06T15:11:09;100458.31;;;16.32;100.00
60307;BME280;46155;52.364;6.580;2023-08-06T15:13:34;100461.03;;;16.35;100.00
60307;BME280;46155;52.364;6.580;2023-08-06T15:15:59;100463.72;;;16.37;100.00
60307;BME280;46155;52.364;6.580;2023-08-06T15:18:25;100461.97;;;16.37;100.00
60307;BME280;46155;52.364;6.580;2023-08-06T15:20:50;100477.88;;;16.37;100.00
60307;BME280;46155;52.364;6.580;2023-08-06T15:23:15;100472.47;;;16.34;100.00
60307;BME280;46155;52.364;6.580;2023-08-06T15:25:41;100484.88;;;16.35;100.00
60307;BME280;46155;52.364;6.580;2023-08-06T15:28:06;100480.44;;;16.34;100.00
60307;BME280;46155;52.364;6.580;2023-08-06T15:30:32;100484.88;;;16.35;100.00
60307;BME280;46155;52.364;6.580;2023-08-06T15:32:57;100486.47;;;16.30;100.00
60307;BME280;46155;52.364;6.580;2023-08-06T15:35:23;100488.28;;;16.31;100.00
60307;BME280;46155;52.364;6.580;2023-08-06T15:37:48;100479.78;;;16.14;100.00
60307;BME280;46155;52.364;6.580;2023-08-06T15:40:13;100482.28;;;16.09;100.00
60307;BME280;46155;52.364;6.580;2023-08-06T15:42:39;100483.69;;;15.98;100.00